createdAt,value
2016-11-12T00:00:33.271Z,92.74
2016-11-12T00:01:46.273Z,92.45
2016-11-12T00:02:58.782Z,92.55
2016-11-12T00:04:12.291Z,92.65
2016-11-12T00:05:25.920Z,92.55
2016-11-12T00:06:39.505Z,92.55
2016-11-12T00:07:53.081Z,93.03
2016-11-12T00:09:06.686Z,92.69
2016-11-12T00:10:19.212Z,93.08
2016-11-12T00:11:32.256Z,93.18
2016-11-12T00:12:45.844Z,93.47
2016-11-12T00:13:59.416Z,94.43
2016-11-12T00:15:12.491Z,94.53
2016-11-12T00:16:25.561Z,95.3
2016-11-12T00:17:38.073Z,95.98
2016-11-12T00:18:51.052Z,96.03
2016-11-12T00:20:04.649Z,96.31
2016-11-12T00:21:18.235Z,96.46
2016-11-12T00:22:31.785Z,96.94
2016-11-12T00:23:45.497Z,97.04
2016-11-12T00:24:58.091Z,96.26
2016-11-12T00:26:11.240Z,97.19
2016-11-12T00:27:24.868Z,97.28
2016-11-12T00:28:38.482Z,97.47
2016-11-12T00:29:52.125Z,98.15
2016-11-12T00:31:05.662Z,96.22
2016-11-12T00:32:18.208Z,96.89
2016-11-12T00:33:31.796Z,96.94
2016-11-12T00:34:45.367Z,97.81
2016-11-12T00:35:58.492Z,98.2
2016-11-12T00:37:11.022Z,99.55
2016-11-12T00:38:24.652Z,97.72
2016-11-12T00:39:38.292Z,99.11
2016-11-12T00:40:51.367Z,99.99
2016-11-12T00:42:03.926Z,99.69
2016-11-12T00:43:16.965Z,99.88
2016-11-12T00:44:30.499Z,99.99
2016-11-12T00:45:43.555Z,99.99
2016-11-12T00:46:57.084Z,99.99
2016-11-12T00:48:10.626Z,99.99
2016-11-12T00:49:24.140Z,99.99
2016-11-12T00:50:37.692Z,99.99
2016-11-12T00:51:50.260Z,99.99
2016-11-12T00:53:03.853Z,99.99
2016-11-12T00:54:17.430Z,99.99
2016-11-12T00:55:30.479Z,99.99
2016-11-12T00:56:42.993Z,99.99
2016-11-12T00:57:56.706Z,99.99
2016-11-12T00:59:10.303Z,99.99
2016-11-12T01:00:23.876Z,99.99
2016-11-12T01:01:37.492Z,99.99
2016-11-12T01:02:50.595Z,99.99
2016-11-12T01:04:03.789Z,99.99
2016-11-12T01:05:15.737Z,99.99
2016-11-12T01:06:28.293Z,99.99
2016-11-12T01:07:41.906Z,99.99
2016-11-12T01:08:54.989Z,99.99
2016-11-12T01:10:08.621Z,99.99
2016-11-12T01:11:21.568Z,99.99
2016-11-12T01:12:35.160Z,99.99
2016-11-12T01:13:47.721Z,99.99
2016-11-12T01:15:00.789Z,99.99
2016-11-12T01:16:13.787Z,99.99
2016-11-12T01:17:26.814Z,99.99
2016-11-12T01:18:38.789Z,99.99
2016-11-12T01:20:22.956Z,99.99
2016-11-12T01:21:35.997Z,99.99
2016-11-12T01:22:49.613Z,99.99
2016-11-12T01:24:03.237Z,99.99
2016-11-12T01:25:16.839Z,99.99
2016-11-12T01:26:29.342Z,99.99
2016-11-12T01:27:41.297Z,99.99
2016-11-12T01:28:54.302Z,99.99
2016-11-12T01:30:07.521Z,99.99
2016-11-12T01:31:20.562Z,99.99
2016-11-12T01:32:33.605Z,99.99
2016-11-12T01:33:46.729Z,99.99
2016-11-12T01:34:59.802Z,99.99
2016-11-12T01:36:12.383Z,99.99
2016-11-12T01:37:24.969Z,99.99
2016-11-12T01:38:36.876Z,99.99
2016-11-12T01:39:50.541Z,99.99
2016-11-12T01:41:03.060Z,99.99
2016-11-12T01:42:16.626Z,99.99
2016-11-12T01:43:29.655Z,99.99
2016-11-12T01:44:42.106Z,99.99
2016-11-12T01:45:55.152Z,99.99
2016-11-12T01:47:08.202Z,99.99
2016-11-12T01:48:21.791Z,99.99
2016-11-12T01:49:34.901Z,99.99
2016-11-12T01:50:47.993Z,99.99
2016-11-12T01:52:01.578Z,99.99
2016-11-12T01:53:14.076Z,99.99
2016-11-12T01:54:27.147Z,99.99
2016-11-12T01:55:40.647Z,99.99
2016-11-12T01:56:54.208Z,99.99
2016-11-12T01:58:07.858Z,99.99
2016-11-12T01:59:20.415Z,99.99
2016-11-12T02:00:33.486Z,99.99
2016-11-12T02:01:46.529Z,99.99
2016-11-12T02:02:58.466Z,99.99
2016-11-12T02:04:11.602Z,99.99
2016-11-12T02:05:24.599Z,99.99
2016-11-12T02:06:37.148Z,99.99
2016-11-12T02:07:50.711Z,99.99
2016-11-12T02:09:03.779Z,99.99
2016-11-12T02:10:17.405Z,99.99
2016-11-12T02:11:31.011Z,99.99
2016-11-12T02:12:44.611Z,99.99
2016-11-12T02:13:57.601Z,99.99
2016-11-12T02:15:11.129Z,99.99
2016-11-12T02:16:24.664Z,99.99
2016-11-12T02:17:38.260Z,99.99
2016-11-12T02:18:51.931Z,99.99
2016-11-12T02:20:04.977Z,99.99
2016-11-12T02:21:18.573Z,99.99
2016-11-12T02:22:30.524Z,99.99
2016-11-12T02:23:44.171Z,99.99
2016-11-12T02:24:57.712Z,99.99
2016-11-12T02:26:11.322Z,99.99
2016-11-12T02:27:24.438Z,99.99
2016-11-12T02:28:38.009Z,99.99
2016-11-12T02:29:51.083Z,99.99
2016-11-12T02:31:04.658Z,99.99
2016-11-12T02:32:17.672Z,99.99
2016-11-12T02:33:30.723Z,99.99
2016-11-12T02:34:43.186Z,99.99
2016-11-12T02:35:56.346Z,99.99
2016-11-12T02:37:09.964Z,99.99
2016-11-12T02:38:22.952Z,99.99
2016-11-12T02:39:35.456Z,99.99
2016-11-12T02:40:48.550Z,99.99
2016-11-12T02:42:00.988Z,99.99
2016-11-12T02:43:13.487Z,99.99
2016-11-12T02:44:27.016Z,99.99
2016-11-12T02:45:40.080Z,99.99
2016-11-12T02:46:53.065Z,99.99
2016-11-12T02:48:05.599Z,99.99
2016-11-12T02:49:19.181Z,99.99
2016-11-12T02:50:32.183Z,99.99
2016-11-12T02:51:44.168Z,99.99
2016-11-12T02:52:57.654Z,99.99
2016-11-12T02:54:10.754Z,99.99
2016-11-12T02:55:23.755Z,99.99
2016-11-12T02:56:36.264Z,99.99
2016-11-12T02:57:49.376Z,99.99
2016-11-12T02:59:03.049Z,99.99
2016-11-12T03:00:16.633Z,99.99
2016-11-12T03:01:29.613Z,99.99
2016-11-12T03:02:43.182Z,99.99
2016-11-12T03:03:56.803Z,99.99
2016-11-12T03:05:10.397Z,99.99
2016-11-12T03:06:22.931Z,99.99
2016-11-12T03:07:35.994Z,99.99
2016-11-12T03:08:49.556Z,99.99
2016-11-12T03:10:02.584Z,99.99
2016-11-12T03:11:15.096Z,99.99
2016-11-12T03:12:28.603Z,99.99
2016-11-12T03:13:42.148Z,99.99
2016-11-12T03:14:55.244Z,99.99
2016-11-12T03:16:08.848Z,99.99
2016-11-12T03:17:22.324Z,99.99
2016-11-12T03:18:34.758Z,99.99
2016-11-12T03:19:47.284Z,99.99
2016-11-12T03:21:00.294Z,99.99
2016-11-12T03:22:11.742Z,99.99
2016-11-12T03:23:24.843Z,99.99
2016-11-12T03:24:38.403Z,99.99
2016-11-12T03:25:51.897Z,99.99
2016-11-12T03:27:04.996Z,99.99
2016-11-12T03:28:18.599Z,99.99
2016-11-12T03:29:31.128Z,99.99
2016-11-12T03:30:44.719Z,99.99
2016-11-12T03:31:57.297Z,99.99
2016-11-12T03:33:11.013Z,99.99
2016-11-12T03:34:24.627Z,99.99
2016-11-12T03:35:37.173Z,99.99
2016-11-12T03:36:50.848Z,99.99
2016-11-12T03:38:03.400Z,99.99
2016-11-12T03:39:16.435Z,99.99
2016-11-12T03:40:29.556Z,99.99
2016-11-12T03:41:43.188Z,99.99
2016-11-12T03:42:56.831Z,99.99
2016-11-12T03:44:09.246Z,99.99
2016-11-12T03:45:22.308Z,99.99
2016-11-12T03:46:35.406Z,99.99
2016-11-12T03:47:47.861Z,99.99
2016-11-12T03:49:00.319Z,99.99
2016-11-12T03:50:13.955Z,99.99
2016-11-12T03:51:26.385Z,99.99
2016-11-12T03:52:39.963Z,99.99
2016-11-12T03:53:53.047Z,99.99
2016-11-12T03:55:06.606Z,99.99
2016-11-12T03:56:20.217Z,99.99
2016-11-12T03:57:33.827Z,99.99
2016-11-12T03:58:46.375Z,99.99
2016-11-12T03:59:59.390Z,99.99
2016-11-12T04:01:12.484Z,99.99
2016-11-12T04:02:26.081Z,99.99
2016-11-12T04:03:39.089Z,99.99
2016-11-12T04:04:51.703Z,99.99
2016-11-12T04:06:04.178Z,99.99
2016-11-12T04:07:17.658Z,99.99
2016-11-12T04:08:30.672Z,99.99
2016-11-12T04:09:43.718Z,99.99
2016-11-12T04:10:57.263Z,99.99
2016-11-12T04:12:10.292Z,99.99
2016-11-12T04:13:23.296Z,99.99
2016-11-12T04:14:36.281Z,99.99
2016-11-12T04:15:48.792Z,99.99
2016-11-12T04:17:00.812Z,99.99
2016-11-12T04:18:14.338Z,99.99
2016-11-12T04:19:27.315Z,99.99
2016-11-12T04:20:40.453Z,99.99
2016-11-12T04:21:52.468Z,99.99
2016-11-12T04:23:05.978Z,99.99
2016-11-12T04:24:18.955Z,99.99
2016-11-12T04:25:32.581Z,99.99
2016-11-12T04:26:45.745Z,99.99
2016-11-12T04:27:58.833Z,99.99
2016-11-12T04:29:10.853Z,99.99
2016-11-12T04:30:24.476Z,99.99
2016-11-12T04:31:38.041Z,99.99
2016-11-12T04:32:51.054Z,99.99
2016-11-12T04:34:04.646Z,99.99
2016-11-12T04:35:17.721Z,99.99
2016-11-12T04:36:30.809Z,99.99
2016-11-12T04:37:44.358Z,99.99
2016-11-12T04:38:56.844Z,99.99
2016-11-12T04:40:09.417Z,99.99
2016-11-12T04:41:23.002Z,99.99
2016-11-12T04:42:36.548Z,99.99
2016-11-12T04:43:50.109Z,99.99
2016-11-12T04:45:03.156Z,99.99
2016-11-12T04:46:16.749Z,99.99
2016-11-12T04:47:29.814Z,99.99
2016-11-12T04:48:43.423Z,99.99
2016-11-12T04:49:56.967Z,99.99
2016-11-12T04:51:10.038Z,99.99
2016-11-12T04:52:23.034Z,99.99
2016-11-12T04:53:35.521Z,99.99
2016-11-12T04:54:49.106Z,99.99
2016-11-12T04:56:02.255Z,99.99
2016-11-12T04:57:15.822Z,99.99
2016-11-12T04:58:29.319Z,99.99
2016-11-12T04:59:42.330Z,99.99
2016-11-12T05:00:55.358Z,99.99
2016-11-12T05:02:08.441Z,99.99
2016-11-12T05:03:21.453Z,99.99
2016-11-12T05:04:33.959Z,99.99
2016-11-12T05:05:46.964Z,99.99
2016-11-12T05:06:59.983Z,99.99
2016-11-12T05:08:13.048Z,99.99
2016-11-12T05:09:26.559Z,99.99
2016-11-12T05:10:39.557Z,99.99
2016-11-12T05:11:52.066Z,99.99
2016-11-12T05:13:04.051Z,99.99
2016-11-12T05:14:16.594Z,99.99
2016-11-12T05:15:30.134Z,99.99
2016-11-12T05:17:14.750Z,99.99
2016-11-12T05:18:27.853Z,99.99
2016-11-12T05:19:40.358Z,99.99
2016-11-12T05:20:52.979Z,99.99
2016-11-12T05:22:06.593Z,99.99
2016-11-12T05:23:19.610Z,99.99
2016-11-12T05:24:32.617Z,99.99
2016-11-12T05:25:45.108Z,99.99
2016-11-12T05:26:58.684Z,99.99
2016-11-12T05:28:12.331Z,99.99
2016-11-12T05:29:25.288Z,99.99
2016-11-12T05:30:38.884Z,99.99
2016-11-12T05:31:51.389Z,99.99
2016-11-12T05:33:04.471Z,99.99
2016-11-12T05:34:18.079Z,99.99
2016-11-12T05:35:31.151Z,99.99
2016-11-12T05:36:44.188Z,99.99
2016-11-12T05:37:57.271Z,99.99
2016-11-12T05:39:10.788Z,99.99
2016-11-12T05:40:24.433Z,99.99
2016-11-12T05:41:37.566Z,99.99
2016-11-12T05:42:51.133Z,99.99
2016-11-12T05:44:04.720Z,99.99
2016-11-12T05:45:17.204Z,99.99
2016-11-12T05:46:30.824Z,99.99
2016-11-12T05:47:43.839Z,99.99
2016-11-12T05:48:56.359Z,99.99
2016-11-12T05:50:08.344Z,99.99
2016-11-12T05:51:20.890Z,99.99
2016-11-12T05:52:33.419Z,99.99
2016-11-12T05:53:46.403Z,99.99
2016-11-12T05:54:59.998Z,99.99
2016-11-12T05:56:13.621Z,99.99
2016-11-12T05:57:26.174Z,99.99
2016-11-12T05:58:38.764Z,99.99
2016-11-12T05:59:52.360Z,99.99
2016-11-12T06:01:05.399Z,99.99
2016-11-12T06:02:18.348Z,99.99
2016-11-12T06:03:31.947Z,99.99
2016-11-12T06:04:45.055Z,99.99
2016-11-12T06:05:58.640Z,99.99
2016-11-12T06:07:11.632Z,99.99
2016-11-12T06:08:24.627Z,99.99
2016-11-12T06:09:37.711Z,99.99
2016-11-12T06:10:50.274Z,99.99
2016-11-12T06:12:02.776Z,99.99
2016-11-12T06:13:15.856Z,99.99
2016-11-12T06:14:29.451Z,99.99
2016-11-12T06:15:42.496Z,99.99
2016-11-12T06:16:55.492Z,99.99
2016-11-12T06:18:09.009Z,99.99
2016-11-12T06:19:22.535Z,99.99
2016-11-12T06:20:35.593Z,99.99
2016-11-12T06:21:48.032Z,99.99
2016-11-12T06:23:00.555Z,99.99
2016-11-12T06:24:14.194Z,99.99
2016-11-12T06:25:26.698Z,99.99
2016-11-12T06:26:39.791Z,99.99
2016-11-12T06:27:52.381Z,99.99
2016-11-12T06:29:05.477Z,99.99
2016-11-12T06:30:18.549Z,99.99
2016-11-12T06:31:31.611Z,99.99
2016-11-12T06:32:43.623Z,99.99
2016-11-12T06:33:57.194Z,99.99
2016-11-12T06:35:10.756Z,99.99
2016-11-12T06:36:23.246Z,99.99
2016-11-12T06:37:36.181Z,99.99
2016-11-12T06:38:49.166Z,99.99
2016-11-12T06:40:02.180Z,99.99
2016-11-12T06:41:15.257Z,99.99
2016-11-12T06:42:27.889Z,99.99
2016-11-12T06:43:40.405Z,99.99
2016-11-12T06:44:52.903Z,99.99
2016-11-12T06:46:05.908Z,99.99
2016-11-12T06:47:19.442Z,99.99
2016-11-12T06:48:33.052Z,99.99
2016-11-12T06:49:46.794Z,99.99
2016-11-12T06:51:00.321Z,99.99
2016-11-12T06:52:13.813Z,99.99
2016-11-12T06:53:26.842Z,99.99
2016-11-12T06:54:39.833Z,99.99
2016-11-12T06:55:53.443Z,99.99
2016-11-12T06:57:06.981Z,99.99
2016-11-12T06:58:20.081Z,99.99
2016-11-12T06:59:33.049Z,99.99
2016-11-12T07:00:46.018Z,99.99
2016-11-12T07:01:58.982Z,99.99
2016-11-12T07:03:12.519Z,99.99
2016-11-12T07:04:26.086Z,99.99
2016-11-12T07:05:39.149Z,99.99
2016-11-12T07:06:52.192Z,99.99
2016-11-12T07:08:05.696Z,99.99
2016-11-12T07:09:18.755Z,99.99
2016-11-12T07:10:31.813Z,99.99
2016-11-12T07:11:44.816Z,99.99
2016-11-12T07:12:57.324Z,99.99
2016-11-12T07:14:10.913Z,99.99
2016-11-12T07:15:23.469Z,99.99
2016-11-12T07:16:36.975Z,99.99
2016-11-12T07:17:50.076Z,99.99
2016-11-12T07:19:02.550Z,99.99
2016-11-12T07:20:16.265Z,99.99
2016-11-12T07:21:28.710Z,99.99
2016-11-12T07:22:41.728Z,99.99
2016-11-12T07:23:55.315Z,99.99
2016-11-12T07:25:08.898Z,99.99
2016-11-12T07:26:22.542Z,99.99
2016-11-12T07:27:35.513Z,99.99
2016-11-12T07:28:47.981Z,99.99
2016-11-12T07:30:01.065Z,99.99
2016-11-12T07:31:14.067Z,99.99
2016-11-12T07:32:27.156Z,99.99
2016-11-12T07:33:40.210Z,99.99
2016-11-12T07:34:53.769Z,99.99
2016-11-12T07:36:07.340Z,99.99
2016-11-12T07:37:20.851Z,99.99
2016-11-12T07:38:33.460Z,99.99
2016-11-12T07:39:46.434Z,99.99
2016-11-12T07:40:59.989Z,99.99
2016-11-12T07:42:12.981Z,99.99
2016-11-12T07:43:26.091Z,99.99
2016-11-12T07:44:39.178Z,99.99
2016-11-12T07:45:52.701Z,99.99
2016-11-12T07:47:05.672Z,99.99
2016-11-12T07:48:18.735Z,99.99
2016-11-12T07:49:31.740Z,99.99
2016-11-12T07:50:45.399Z,99.99
2016-11-12T07:51:58.437Z,99.99
2016-11-12T07:53:11.542Z,99.99
2016-11-12T07:54:24.005Z,99.99
2016-11-12T07:55:35.430Z,99.99
2016-11-12T07:56:47.991Z,99.99
2016-11-12T07:58:01.050Z,99.99
2016-11-12T07:59:14.091Z,99.99
2016-11-12T08:00:27.637Z,99.99
2016-11-12T08:01:41.140Z,99.99
2016-11-12T08:02:54.713Z,99.99
2016-11-12T08:04:07.206Z,99.99
2016-11-12T08:05:20.702Z,99.99
2016-11-12T08:06:33.272Z,99.99
2016-11-12T08:07:46.858Z,99.99
2016-11-12T08:08:59.878Z,99.99
2016-11-12T08:10:11.886Z,99.99
2016-11-12T08:11:25.009Z,99.99
2016-11-12T08:12:38.035Z,99.99
2016-11-12T08:13:51.144Z,99.99
2016-11-12T08:15:04.689Z,99.99
2016-11-12T08:16:18.198Z,99.99
2016-11-12T08:17:31.307Z,99.99
2016-11-12T08:18:44.320Z,99.99
2016-11-12T08:19:57.322Z,99.99
2016-11-12T08:21:09.245Z,99.99
2016-11-12T08:22:22.300Z,99.99
2016-11-12T08:23:34.798Z,99.99
2016-11-12T08:24:48.321Z,99.99
2016-11-12T08:26:01.894Z,99.99
2016-11-12T08:27:14.427Z,99.99
2016-11-12T08:28:26.929Z,99.99
2016-11-12T08:29:39.920Z,99.99
2016-11-12T08:30:52.394Z,99.99
2016-11-12T08:32:04.880Z,99.99
2016-11-12T08:33:17.370Z,99.99
2016-11-12T08:34:29.358Z,99.99
2016-11-12T08:35:42.440Z,99.99
2016-11-12T08:36:55.993Z,99.99
2016-11-12T08:38:08.439Z,99.99
2016-11-12T08:39:21.472Z,99.99
2016-11-12T08:40:34.504Z,99.99
2016-11-12T08:41:46.972Z,99.99
2016-11-12T08:42:59.488Z,99.99
2016-11-12T08:44:12.487Z,99.99
2016-11-12T08:45:25.076Z,99.99
2016-11-12T08:46:38.143Z,99.99
2016-11-12T08:47:51.188Z,99.99
2016-11-12T08:49:03.206Z,99.99
2016-11-12T08:50:15.752Z,99.99
2016-11-12T08:51:28.736Z,99.99
2016-11-12T08:52:42.287Z,99.99
2016-11-12T08:53:55.380Z,99.99
2016-11-12T08:55:08.963Z,99.99
2016-11-12T08:56:21.001Z,99.99
2016-11-12T08:57:34.456Z,99.99
2016-11-12T08:58:47.024Z,99.99
2016-11-12T09:00:00.081Z,99.99
2016-11-12T09:01:12.661Z,99.99
2016-11-12T09:02:25.192Z,99.99
2016-11-12T09:03:37.718Z,99.99
2016-11-12T09:04:49.660Z,99.99
2016-11-12T09:06:03.217Z,99.99
2016-11-12T09:07:16.272Z,99.99
2016-11-12T09:08:28.804Z,99.99
2016-11-12T09:09:42.407Z,99.99
2016-11-12T09:10:56.027Z,99.99
2016-11-12T09:12:09.633Z,99.99
2016-11-12T09:13:22.057Z,99.99
2016-11-12T09:14:35.721Z,99.99
2016-11-12T09:15:49.290Z,99.99
2016-11-12T09:17:02.845Z,99.99
2016-11-12T09:18:15.939Z,99.99
2016-11-12T09:19:29.457Z,99.99
2016-11-12T09:20:42.531Z,99.99
2016-11-12T09:21:55.549Z,99.99
2016-11-12T09:23:08.044Z,99.99
2016-11-12T09:24:21.613Z,99.99
2016-11-12T09:25:35.206Z,99.99
2016-11-12T09:26:48.756Z,99.99
2016-11-12T09:28:01.768Z,99.99
2016-11-12T09:29:13.801Z,99.99
2016-11-12T09:30:27.531Z,99.99
2016-11-12T09:31:41.198Z,99.99
2016-11-12T09:32:53.595Z,99.99
2016-11-12T09:34:07.173Z,99.99
2016-11-12T09:35:19.602Z,99.99
2016-11-12T09:36:32.551Z,99.99
2016-11-12T09:37:45.482Z,99.99
2016-11-12T09:38:58.460Z,99.99
2016-11-12T09:40:10.361Z,99.99
2016-11-12T09:41:23.904Z,99.99
2016-11-12T09:42:36.926Z,99.99
2016-11-12T09:43:49.936Z,99.99
2016-11-12T09:45:02.458Z,99.99
2016-11-12T09:46:15.521Z,99.99
2016-11-12T09:47:27.971Z,99.99
2016-11-12T09:48:39.833Z,99.99
2016-11-12T09:49:52.249Z,99.99
2016-11-12T09:51:05.745Z,99.99
2016-11-12T09:52:18.648Z,99.99
2016-11-12T09:53:31.132Z,99.99
2016-11-12T09:54:44.110Z,99.99
2016-11-12T09:55:56.613Z,99.99
2016-11-12T09:57:09.595Z,99.99
2016-11-12T09:58:22.505Z,99.99
2016-11-12T09:59:36.051Z,99.99
2016-11-12T10:00:48.502Z,99.99
2016-11-12T10:02:00.974Z,99.99
2016-11-12T10:03:13.991Z,99.99
2016-11-12T10:04:26.517Z,99.99
2016-11-12T10:05:38.532Z,99.99
2016-11-12T10:06:51.441Z,99.99
2016-11-12T10:08:04.428Z,99.99
2016-11-12T10:09:17.419Z,99.99
2016-11-12T10:10:30.387Z,99.99
2016-11-12T10:11:42.879Z,99.99
2016-11-12T10:12:56.471Z,99.99
2016-11-12T10:14:09.387Z,99.99
2016-11-12T10:15:22.394Z,99.99
2016-11-12T10:16:35.443Z,99.99
2016-11-12T10:17:49.042Z,99.99
2016-11-12T10:19:02.519Z,99.99
2016-11-12T10:20:16.037Z,99.99
2016-11-12T10:21:28.969Z,99.99
2016-11-12T10:22:41.430Z,99.99
2016-11-12T10:23:54.424Z,99.99
2016-11-12T10:25:07.995Z,99.99
2016-11-12T10:26:21.048Z,99.99
2016-11-12T10:27:34.524Z,99.99
2016-11-12T10:28:45.930Z,99.99
2016-11-12T10:29:59.490Z,99.99
2016-11-12T10:31:13.017Z,99.99
2016-11-12T10:32:25.466Z,99.99
2016-11-12T10:33:38.498Z,99.99
2016-11-12T10:34:51.405Z,99.99
2016-11-12T10:36:04.927Z,99.99
2016-11-12T10:37:17.954Z,99.99
2016-11-12T10:38:31.481Z,99.99
2016-11-12T10:39:43.945Z,99.99
2016-11-12T10:40:56.859Z,99.99
2016-11-12T10:42:09.350Z,99.99
2016-11-12T10:43:22.913Z,99.99
2016-11-12T10:44:35.398Z,99.99
2016-11-12T10:45:48.394Z,99.99
2016-11-12T10:47:00.796Z,99.99
2016-11-12T10:48:14.285Z,99.99
2016-11-12T10:49:27.811Z,99.99
2016-11-12T10:50:40.720Z,99.99
2016-11-12T10:51:54.211Z,99.99
2016-11-12T10:53:06.661Z,99.99
2016-11-12T10:54:19.163Z,99.99
2016-11-12T10:55:32.739Z,99.99
2016-11-12T10:56:44.564Z,99.99
2016-11-12T10:57:58.169Z,99.99
2016-11-12T10:59:10.663Z,99.99
2016-11-12T11:00:24.108Z,99.99
2016-11-12T11:01:37.657Z,99.99
2016-11-12T11:02:50.676Z,99.99
2016-11-12T11:04:04.119Z,99.99
2016-11-12T11:05:17.175Z,99.99
2016-11-12T11:06:30.677Z,99.99
2016-11-12T11:07:44.192Z,99.99
2016-11-12T11:08:57.085Z,99.99
2016-11-12T11:10:10.076Z,99.99
2016-11-12T11:11:23.058Z,99.99
2016-11-12T11:12:35.491Z,99.99
2016-11-12T11:13:48.521Z,99.99
2016-11-12T11:15:00.942Z,99.99
2016-11-12T11:16:14.495Z,99.99
2016-11-12T11:17:28.049Z,99.99
2016-11-12T11:18:41.031Z,99.99
2016-11-12T11:19:52.962Z,99.99
2016-11-12T11:21:05.433Z,99.99
2016-11-12T11:22:17.372Z,99.99
2016-11-12T11:23:30.344Z,99.99
2016-11-12T11:24:43.294Z,99.99
2016-11-12T11:25:56.771Z,99.99
2016-11-12T11:27:10.218Z,99.99
2016-11-12T11:28:23.742Z,99.99
2016-11-12T11:29:36.735Z,99.99
2016-11-12T11:30:50.189Z,99.99
2016-11-12T11:32:02.135Z,99.99
2016-11-12T11:33:14.651Z,99.99
2016-11-12T11:34:27.575Z,99.99
2016-11-12T11:35:41.108Z,99.99
2016-11-12T11:36:53.579Z,99.99
2016-11-12T11:38:07.074Z,99.99
2016-11-12T11:39:20.094Z,99.99
2016-11-12T11:40:33.087Z,99.99
2016-11-12T11:41:46.064Z,99.99
2016-11-12T11:42:59.075Z,99.99
2016-11-12T11:44:12.630Z,99.99
2016-11-12T11:45:26.129Z,99.99
2016-11-12T11:46:38.629Z,99.99
2016-11-12T11:47:52.128Z,99.99
2016-11-12T11:49:05.122Z,99.99
2016-11-12T11:50:17.644Z,99.99
2016-11-12T11:51:30.669Z,99.99
2016-11-12T11:52:43.600Z,99.99
2016-11-12T11:53:57.001Z,99.99
2016-11-12T11:55:10.490Z,99.99
2016-11-12T11:56:24.090Z,99.99
2016-11-12T11:57:35.995Z,99.99
2016-11-12T11:58:49.027Z,99.99
2016-11-12T12:00:02.033Z,99.99
2016-11-12T12:01:14.980Z,99.99
2016-11-12T12:02:27.484Z,99.99
2016-11-12T12:03:41.006Z,99.99
2016-11-12T12:04:54.023Z,99.99
2016-11-12T12:06:06.472Z,99.99
2016-11-12T12:07:19.970Z,99.99
2016-11-12T12:08:31.956Z,99.99
2016-11-12T12:09:45.396Z,99.99
2016-11-12T12:10:58.387Z,99.99
2016-11-12T12:12:11.438Z,99.99
2016-11-12T12:13:24.456Z,99.99
2016-11-12T12:14:38.046Z,99.99
2016-11-12T12:15:50.426Z,99.99
2016-11-12T12:17:03.954Z,99.99
2016-11-12T12:18:16.896Z,99.99
2016-11-12T12:19:28.846Z,99.99
2016-11-12T12:20:41.346Z,99.99
2016-11-12T12:21:54.845Z,99.99
2016-11-12T12:23:07.250Z,99.99
2016-11-12T12:24:20.763Z,99.99
2016-11-12T12:25:32.747Z,99.99
2016-11-12T12:26:46.261Z,99.99
2016-11-12T12:27:59.208Z,99.99
2016-11-12T12:29:12.096Z,99.99
2016-11-12T12:30:24.553Z,99.99
2016-11-12T12:31:38.057Z,99.99
2016-11-12T12:32:51.563Z,99.99
2016-11-12T12:34:05.069Z,99.99
2016-11-12T12:35:18.546Z,99.99
2016-11-12T12:36:31.539Z,99.99
2016-11-12T12:37:44.534Z,99.99
2016-11-12T12:38:58.091Z,99.99
2016-11-12T12:40:11.577Z,99.99
2016-11-12T12:41:25.100Z,99.99
2016-11-12T12:42:38.148Z,99.99
2016-11-12T12:43:50.621Z,99.99
2016-11-12T12:45:04.127Z,99.99
2016-11-12T12:46:16.050Z,99.99
2016-11-12T12:47:29.485Z,99.99
2016-11-12T12:48:43.063Z,99.99
2016-11-12T12:49:55.965Z,99.99
2016-11-12T12:51:08.912Z,99.99
2016-11-12T12:52:21.340Z,99.99
2016-11-12T12:53:34.279Z,99.99
2016-11-12T12:54:47.774Z,99.99
2016-11-12T12:56:00.240Z,99.99
2016-11-12T12:57:13.694Z,99.99
2016-11-12T12:58:26.706Z,99.99
2016-11-12T12:59:40.217Z,99.99
2016-11-12T13:00:52.698Z,99.99
2016-11-12T13:02:05.183Z,99.99
2016-11-12T13:03:17.614Z,99.99
2016-11-12T13:04:30.136Z,99.99
2016-11-12T13:05:42.645Z,99.99
2016-11-12T13:06:54.625Z,99.99
2016-11-12T13:08:08.140Z,99.99
2016-11-12T13:09:21.100Z,99.99
2016-11-12T13:10:34.587Z,99.99
2016-11-12T13:11:46.519Z,99.99
2016-11-12T13:13:00.047Z,99.99
2016-11-12T13:14:13.034Z,99.99
2016-11-12T13:15:25.618Z,99.99
2016-11-12T13:16:39.132Z,99.99
2016-11-12T13:17:52.678Z,99.99
2016-11-12T13:19:04.637Z,99.99
2016-11-12T13:20:16.597Z,99.99
2016-11-12T13:21:29.568Z,99.99
2016-11-12T13:22:41.973Z,99.99
2016-11-12T13:23:54.995Z,99.99
2016-11-12T13:25:08.555Z,99.99
2016-11-12T13:26:20.505Z,99.99
2016-11-12T13:27:33.536Z,99.99
2016-11-12T13:28:45.985Z,99.99
2016-11-12T13:29:58.497Z,99.99
2016-11-12T13:31:10.924Z,99.98
2016-11-12T13:32:23.844Z,99.99
2016-11-12T13:33:36.809Z,99.99
2016-11-12T13:34:50.318Z,99.99
2016-11-12T13:36:03.321Z,99.99
2016-11-12T13:37:16.835Z,99.99
2016-11-12T13:38:29.289Z,99.99
2016-11-12T13:39:42.329Z,99.99
2016-11-12T13:40:56.070Z,99.99
2016-11-12T13:42:08.992Z,99.93
2016-11-12T13:43:20.855Z,99.99
2016-11-12T13:44:34.318Z,99.99
2016-11-12T13:45:47.265Z,99.99
2016-11-12T13:47:00.354Z,99.99
2016-11-12T13:48:13.281Z,99.99
2016-11-12T13:49:26.211Z,99.99
2016-11-12T13:50:38.183Z,99.99
2016-11-12T13:51:51.214Z,99.99
2016-11-12T13:53:04.722Z,99.99
2016-11-12T13:54:18.212Z,99.98
2016-11-12T13:55:30.696Z,99.98
2016-11-12T13:56:43.195Z,99.88
2016-11-12T13:57:56.193Z,99.59
2016-11-12T13:59:39.337Z,98
2016-11-12T14:00:51.835Z,97.24
2016-11-12T14:02:04.397Z,95.79
2016-11-12T14:03:16.918Z,96.66
2016-11-12T14:04:30.474Z,97.42
2016-11-12T14:05:44.049Z,96.99
2016-11-12T14:06:57.601Z,95.89
2016-11-12T14:08:10.716Z,96.85
2016-11-12T14:09:23.231Z,97.09
2016-11-12T14:10:36.764Z,98.05
2016-11-12T14:12:22.445Z,97.76
2016-11-12T14:13:34.879Z,96.89
2016-11-12T14:14:47.935Z,96.56
2016-11-12T14:15:59.842Z,95.02
2016-11-12T14:17:13.375Z,95.26
2016-11-12T14:18:26.386Z,94.2
2016-11-12T14:19:39.420Z,94
2016-11-12T14:20:51.857Z,95.11
2016-11-12T14:22:04.899Z,94.73
2016-11-12T14:23:18.441Z,94.63
2016-11-12T14:24:45.959Z,96.51
2016-11-12T14:25:59.005Z,97.57
2016-11-12T14:27:12.469Z,97.67
2016-11-12T14:28:25.468Z,97.28
2016-11-12T14:29:39.289Z,98.05
2016-11-12T14:30:52.284Z,97.62
2016-11-12T14:32:04.257Z,97.19
2016-11-12T14:33:17.908Z,96.51
2016-11-12T14:34:30.860Z,96.99
2016-11-12T14:35:44.370Z,95.74
2016-11-12T14:36:57.367Z,95.64
2016-11-12T14:38:09.909Z,95.16
2016-11-12T14:39:22.948Z,95.94
2016-11-12T14:40:35.925Z,95.89
2016-11-12T14:41:49.506Z,94.54
2016-11-12T14:43:03.111Z,94.63
2016-11-12T14:44:17.825Z,95.11
2016-11-12T14:45:31.767Z,94.73
2016-11-12T14:46:44.844Z,94.73
2016-11-12T14:47:58.379Z,94.15
2016-11-12T14:49:11.958Z,93.91
2016-11-12T14:50:24.296Z,94.63
2016-11-12T14:51:37.267Z,95.79
2016-11-12T14:52:50.337Z,96.42
2016-11-12T14:54:03.947Z,96.12
2016-11-12T14:55:16.393Z,97.09
2016-11-12T14:56:29.447Z,96.89
2016-11-12T14:57:42.412Z,96.32
2016-11-12T14:58:55.412Z,95.79
2016-11-12T15:00:08.476Z,95.89
2016-11-12T15:01:22.647Z,95.5
2016-11-12T15:02:37.557Z,95.02
2016-11-12T15:03:51.102Z,94.73
2016-11-12T15:05:03.625Z,94.63
2016-11-12T15:06:16.663Z,94.92
2016-11-12T15:08:01.429Z,95.31
2016-11-12T15:09:14.537Z,96.08
2016-11-12T15:10:27.088Z,95.02
2016-11-12T15:11:40.743Z,95.31
2016-11-12T15:12:52.720Z,94.34
2016-11-12T15:14:06.258Z,94.34
2016-11-12T15:15:19.268Z,93.62
2016-11-12T15:16:32.909Z,92.8
2016-11-12T15:17:45.405Z,91.54
2016-11-12T15:18:58.992Z,90.72
2016-11-12T15:20:12.026Z,91.3
2016-11-12T15:21:25.539Z,92.12
2016-11-12T15:22:39.100Z,92.94
2016-11-12T15:23:51.603Z,94.68
2016-11-12T15:25:04.589Z,95.98
2016-11-12T15:26:17.621Z,96.66
2016-11-12T15:27:31.163Z,97.76
2016-11-12T15:28:44.159Z,96.61
2016-11-12T15:29:57.742Z,96.42
2016-11-12T15:31:11.295Z,96.89
2016-11-12T15:32:24.873Z,96.32
2016-11-12T15:33:38.399Z,96.03
2016-11-12T15:34:51.936Z,95.02
2016-11-12T15:36:05.530Z,95.5
2016-11-12T15:37:18.062Z,96.27
2016-11-12T15:38:30.555Z,96.8
2016-11-12T15:39:43.598Z,96.8
2016-11-12T15:40:56.153Z,96.7
2016-11-12T15:42:09.758Z,94.97
2016-11-12T15:43:22.322Z,95.02
2016-11-12T15:44:35.324Z,94.34